createdAt,value
2018-12-30T00:02:04.565Z,10.83
2018-12-30T00:04:35.865Z,11.30
2018-12-30T00:07:07.413Z,12.17
2018-12-30T00:09:39.543Z,9.23
2018-12-30T00:12:11.113Z,12.03
2018-12-30T00:14:43.365Z,12.80
2018-12-30T00:17:14.651Z,10.43
2018-12-30T00:19:45.898Z,11.67
2018-12-30T00:22:17.174Z,10.20
2018-12-30T00:24:48.464Z,13.27
2018-12-30T00:27:19.715Z,11.77
2018-12-30T00:29:50.953Z,12.00
2018-12-30T00:32:23.197Z,11.70
2018-12-30T00:34:54.524Z,12.00
2018-12-30T00:37:26.086Z,13.23
2018-12-30T00:39:57.369Z,12.10
2018-12-30T00:42:28.612Z,11.73
2018-12-30T00:45:00.255Z,11.30
2018-12-30T00:47:31.601Z,11.13
2018-12-30T00:50:02.875Z,12.20
2018-12-30T00:52:34.434Z,11.07
2018-12-30T00:55:05.785Z,11.10
2018-12-30T00:57:37.373Z,11.70
2018-12-30T01:00:08.761Z,10.27
2018-12-30T01:02:40.017Z,10.03
2018-12-30T01:05:11.447Z,12.37
2018-12-30T01:07:43.021Z,10.70
2018-12-30T01:10:14.412Z,9.10
2018-12-30T01:12:45.669Z,9.67
2018-12-30T01:15:16.951Z,10.67
2018-12-30T01:17:48.238Z,10.27
2018-12-30T01:20:19.453Z,9.77
2018-12-30T01:22:50.706Z,10.53
2018-12-30T01:25:22.236Z,10.00
2018-12-30T01:27:54.513Z,10.80
2018-12-30T01:30:26.000Z,10.07
2018-12-30T01:32:57.287Z,9.37
2018-12-30T01:35:28.538Z,12.30
2018-12-30T01:37:59.769Z,11.27
2018-12-30T01:40:31.317Z,10.47
2018-12-30T01:43:02.549Z,12.00
2018-12-30T01:45:33.806Z,10.03
2018-12-30T01:48:05.052Z,11.10
2018-12-30T01:50:36.688Z,11.13
2018-12-30T01:53:08.307Z,12.27
2018-12-30T01:55:39.601Z,12.67
2018-12-30T01:58:11.170Z,10.03
2018-12-30T02:00:42.434Z,9.87
2018-12-30T02:03:13.792Z,11.70
2018-12-30T02:05:45.041Z,11.23
2018-12-30T02:08:16.336Z,13.30
2018-12-30T02:10:47.548Z,10.47
2018-12-30T02:13:18.798Z,11.27
2018-12-30T02:15:50.212Z,11.00
2018-12-30T02:18:21.457Z,12.77
2018-12-30T02:20:52.697Z,12.43
2018-12-30T02:23:24.263Z,11.90
2018-12-30T02:25:56.657Z,13.73
2018-12-30T02:28:27.949Z,13.70
2018-12-30T02:31:00.944Z,13.63
2018-12-30T02:33:32.264Z,12.70
2018-12-30T02:36:03.823Z,11.90
2018-12-30T02:38:35.065Z,14.47
2018-12-30T02:41:06.414Z,12.50
2018-12-30T02:43:37.657Z,11.20
2018-12-30T02:46:09.928Z,12.13
2018-12-30T02:48:42.106Z,10.77
2018-12-30T02:51:13.470Z,12.23
2018-12-30T02:53:44.784Z,11.47
2018-12-30T02:56:16.072Z,10.63
2018-12-30T02:58:47.390Z,11.30
2018-12-30T03:01:18.679Z,11.07
2018-12-30T03:03:49.969Z,10.33
2018-12-30T03:06:21.297Z,11.63
2018-12-30T03:08:52.587Z,9.63
2018-12-30T03:11:23.814Z,9.67
2018-12-30T03:13:55.277Z,10.43
2018-12-30T03:16:27.345Z,9.73
2018-12-30T03:18:59.053Z,7.83
2018-12-30T03:21:32.856Z,9.37
2018-12-30T03:24:04.578Z,8.67
2018-12-30T03:26:37.069Z,8.33
2018-12-30T03:29:08.362Z,7.80
2018-12-30T03:31:39.654Z,7.60
2018-12-30T03:34:10.879Z,6.63
2018-12-30T03:36:42.125Z,6.80
2018-12-30T03:39:13.351Z,5.63
2018-12-30T03:41:44.609Z,5.57
2018-12-30T03:44:15.830Z,4.90
2018-12-30T03:46:47.074Z,4.47
2018-12-30T03:49:18.321Z,5.10
2018-12-30T03:51:49.609Z,6.50
2018-12-30T03:54:21.870Z,4.90
2018-12-30T03:56:53.099Z,5.27
2018-12-30T03:59:24.358Z,4.87
2018-12-30T04:01:55.609Z,4.33
2018-12-30T04:04:27.334Z,4.63
2018-12-30T04:07:00.677Z,5.77
2018-12-30T04:09:31.938Z,4.83
2018-12-30T04:12:03.270Z,3.90
2018-12-30T04:14:34.572Z,3.50
2018-12-30T04:17:05.962Z,3.63
2018-12-30T04:19:37.764Z,4.60
2018-12-30T04:22:16.661Z,3.87
2018-12-30T04:24:41.925Z,3.83
2018-12-30T04:27:15.168Z,3.70
2018-12-30T04:29:46.606Z,3.37
2018-12-30T04:32:17.857Z,4.20
2018-12-30T04:34:49.176Z,4.93
2018-12-30T04:37:20.426Z,4.33
2018-12-30T04:39:51.682Z,4.97
2018-12-30T04:42:22.917Z,4.93
2018-12-30T04:44:54.160Z,5.90
2018-12-30T04:47:25.429Z,5.73
2018-12-30T04:49:56.708Z,6.63
2018-12-30T04:52:28.256Z,5.27
2018-12-30T04:54:59.552Z,6.00
2018-12-30T04:57:30.744Z,5.27
2018-12-30T05:00:02.020Z,4.27
2018-12-30T05:02:33.256Z,3.30
2018-12-30T05:05:04.563Z,4.53
2018-12-30T05:07:35.837Z,3.97
2018-12-30T05:10:07.289Z,3.67
2018-12-30T05:12:38.978Z,3.27
2018-12-30T05:15:10.233Z,3.50
2018-12-30T05:17:41.508Z,3.00
2018-12-30T05:20:12.855Z,3.90
2018-12-30T05:22:44.104Z,2.73
2018-12-30T05:25:15.352Z,2.93
2018-12-30T05:27:47.657Z,3.27
2018-12-30T05:30:18.871Z,1.93
2018-12-30T05:32:50.298Z,2.20
2018-12-30T05:35:21.877Z,2.03
2018-12-30T05:37:53.147Z,2.00
2018-12-30T05:40:24.399Z,1.93
2018-12-30T05:42:55.603Z,2.83
2018-12-30T05:45:26.890Z,2.77
2018-12-30T05:47:58.133Z,2.13
2018-12-30T05:50:29.417Z,3.40
2018-12-30T05:53:00.786Z,3.33
2018-12-30T05:55:32.030Z,3.13
2018-12-30T05:58:03.618Z,2.40
2018-12-30T06:00:34.925Z,2.30
2018-12-30T06:03:06.374Z,3.07
2018-12-30T06:05:37.638Z,2.50
2018-12-30T06:08:08.899Z,3.50
2018-12-30T06:10:40.202Z,2.60
2018-12-30T06:13:12.466Z,2.43
2018-12-30T06:15:43.721Z,3.70
2018-12-30T06:18:14.973Z,3.83
2018-12-30T06:20:46.341Z,3.67
2018-12-30T06:23:17.609Z,2.93
2018-12-30T06:25:49.780Z,2.97
2018-12-30T06:28:21.098Z,3.53
2018-12-30T06:30:52.393Z,3.37
2018-12-30T06:33:23.694Z,2.77
2018-12-30T06:35:54.934Z,4.03
2018-12-30T06:38:26.194Z,3.70
2018-12-30T06:40:57.448Z,4.43
2018-12-30T06:43:28.698Z,3.47
2018-12-30T06:45:59.938Z,3.20
2018-12-30T06:48:31.206Z,4.30
2018-12-30T06:51:02.454Z,4.13
2018-12-30T06:53:33.778Z,3.83
2018-12-30T06:56:05.147Z,5.40
2018-12-30T06:58:36.850Z,4.43
2018-12-30T07:01:08.157Z,3.73
2018-12-30T07:03:39.395Z,3.97
2018-12-30T07:06:10.671Z,4.03
2018-12-30T07:08:42.025Z,3.70
2018-12-30T07:11:13.387Z,4.30
2018-12-30T07:13:44.688Z,4.30
2018-12-30T07:16:15.943Z,3.90
2018-12-30T07:18:48.368Z,4.77
2018-12-30T07:21:19.649Z,4.33
2018-12-30T07:23:52.124Z,2.90
2018-12-30T07:26:23.337Z,3.73
2018-12-30T07:28:54.588Z,5.17
2018-12-30T07:31:25.868Z,4.60
2018-12-30T07:33:57.170Z,4.30
2018-12-30T07:36:28.413Z,3.10
2018-12-30T07:38:59.835Z,4.27
2018-12-30T07:41:31.232Z,4.43
2018-12-30T07:44:02.475Z,4.03
2018-12-30T07:46:33.687Z,3.77
2018-12-30T07:49:05.109Z,4.60
2018-12-30T07:51:36.421Z,5.73
2018-12-30T07:54:07.882Z,6.20
2018-12-30T07:56:39.345Z,6.57
2018-12-30T07:59:10.617Z,6.70
2018-12-30T08:01:41.969Z,6.27
2018-12-30T08:04:13.675Z,5.53
2018-12-30T08:06:44.930Z,7.53
2018-12-30T08:09:16.206Z,9.57
2018-12-30T08:11:47.458Z,7.43
2018-12-30T08:14:18.725Z,8.27
2018-12-30T08:16:49.958Z,12.33
2018-12-30T08:19:22.257Z,9.00
2018-12-30T08:21:54.671Z,8.07
2018-12-30T08:24:25.997Z,9.53
2018-12-30T08:26:57.242Z,12.13
2018-12-30T08:29:28.466Z,12.40
2018-12-30T08:31:59.724Z,13.00
2018-12-30T08:34:30.953Z,16.50
2018-12-30T08:37:02.257Z,10.70
2018-12-30T08:39:33.725Z,10.37
2018-12-30T08:42:05.403Z,9.73
2018-12-30T08:44:36.653Z,8.07
2018-12-30T08:47:07.909Z,6.90
2018-12-30T08:49:39.167Z,8.73
2018-12-30T08:52:10.453Z,8.37
2018-12-30T08:54:41.802Z,8.00
2018-12-30T08:57:13.155Z,5.50
2018-12-30T08:59:44.483Z,6.23
2018-12-30T09:02:15.735Z,5.83
2018-12-30T09:04:47.012Z,5.73
2018-12-30T09:07:18.561Z,6.07
2018-12-30T09:09:52.133Z,4.70
2018-12-30T09:12:23.404Z,4.40
2018-12-30T09:14:54.649Z,4.53
2018-12-30T09:17:25.926Z,4.63
2018-12-30T09:19:57.161Z,3.73
2018-12-30T09:22:28.690Z,3.53
2018-12-30T09:25:00.162Z,4.33
2018-12-30T09:27:31.520Z,4.47
2018-12-30T09:30:02.772Z,4.20
2018-12-30T09:32:34.300Z,4.50
2018-12-30T09:35:05.713Z,3.80
2018-12-30T09:37:38.321Z,3.33
2018-12-30T09:40:09.757Z,4.40
2018-12-30T09:42:41.010Z,4.40
2018-12-30T09:45:12.286Z,4.50
2018-12-30T09:47:43.754Z,5.50
2018-12-30T09:50:15.000Z,4.80
2018-12-30T09:52:47.389Z,4.17
2018-12-30T09:55:18.891Z,3.87
2018-12-30T09:57:51.373Z,4.10
2018-12-30T10:00:23.789Z,3.53
2018-12-30T10:02:55.773Z,3.67
2018-12-30T10:05:27.045Z,3.13
2018-12-30T10:07:58.528Z,3.70
2018-12-30T10:10:29.761Z,3.70
2018-12-30T10:13:01.016Z,4.20
2018-12-30T10:15:32.266Z,4.07
2018-12-30T10:18:03.658Z,4.17
2018-12-30T10:20:34.988Z,5.53
2018-12-30T10:23:06.316Z,4.10
2018-12-30T10:25:37.575Z,4.80
2018-12-30T10:28:08.981Z,5.80
2018-12-30T10:30:40.818Z,5.13
2018-12-30T10:33:12.064Z,3.83
2018-12-30T10:35:43.344Z,4.70
2018-12-30T10:38:14.569Z,4.60
2018-12-30T10:40:45.810Z,4.00
2018-12-30T10:43:17.052Z,4.43
2018-12-30T10:45:48.329Z,4.90
2018-12-30T10:48:19.637Z,5.53
2018-12-30T10:50:51.365Z,5.27
2018-12-30T10:53:22.925Z,5.43
2018-12-30T10:55:54.385Z,5.73
2018-12-30T10:58:25.646Z,4.93
2018-12-30T11:00:56.914Z,5.73
2018-12-30T11:03:28.614Z,6.17
2018-12-30T11:06:00.030Z,4.70
2018-12-30T11:08:31.322Z,6.27
2018-12-30T11:11:02.975Z,5.37
2018-12-30T11:13:35.681Z,4.87
2018-12-30T11:16:07.344Z,4.60
2018-12-30T11:18:38.604Z,4.57
2018-12-30T11:21:09.883Z,5.10
2018-12-30T11:23:41.137Z,4.43
2018-12-30T11:26:14.057Z,4.67
2018-12-30T11:28:45.677Z,5.10
2018-12-30T11:31:16.929Z,4.50
2018-12-30T11:33:48.312Z,5.70
2018-12-30T11:36:19.578Z,5.53
2018-12-30T11:38:50.890Z,6.43
2018-12-30T11:41:22.125Z,5.60
2018-12-30T11:43:53.370Z,5.27
2018-12-30T11:46:24.627Z,5.17
2018-12-30T11:48:56.061Z,5.00
2018-12-30T11:51:27.410Z,5.23
2018-12-30T11:53:58.674Z,4.87
2018-12-30T11:56:30.051Z,4.10
2018-12-30T11:59:02.102Z,5.87
2018-12-30T12:01:33.344Z,5.13
2018-12-30T12:04:04.710Z,6.10
2018-12-30T12:06:35.986Z,5.27
2018-12-30T12:09:09.188Z,7.67
2018-12-30T12:11:41.722Z,4.97
2018-12-30T12:14:12.979Z,5.97
2018-12-30T12:16:44.226Z,6.20
2018-12-30T12:19:15.509Z,6.20
2018-12-30T12:21:46.718Z,6.07
2018-12-30T12:24:24.245Z,6.30
2018-12-30T12:26:51.100Z,5.80
2018-12-30T12:29:22.561Z,6.23
2018-12-30T12:31:54.111Z,6.13
2018-12-30T12:34:25.536Z,7.37
2018-12-30T12:36:57.214Z,6.47
2018-12-30T12:39:28.905Z,6.67
2018-12-30T12:42:00.137Z,5.37
2018-12-30T12:44:32.017Z,6.03
2018-12-30T12:47:03.301Z,6.37
2018-12-30T12:49:40.671Z,6.30
2018-12-30T12:52:31.683Z,6.60
2018-12-30T12:55:09.220Z,8.40
2018-12-30T12:58:01.769Z,7.17
2018-12-30T13:00:46.022Z,5.87
2018-12-30T13:03:30.563Z,6.50
2018-12-30T13:06:14.776Z,9.00
2018-12-30T13:09:12.540Z,7.87
2018-12-30T13:12:05.737Z,8.80
2018-12-30T13:14:49.795Z,12.30
2018-12-30T13:17:26.929Z,10.07
2018-12-30T13:20:05.903Z,8.93
2018-12-30T13:22:58.116Z,7.87
2018-12-30T13:25:42.342Z,8.80
2018-12-30T13:28:24.971Z,11.43
2018-12-30T13:31:08.794Z,9.50
2018-12-30T13:34:09.122Z,9.17
2018-12-30T13:40:12.585Z,7.97
2018-12-30T13:43:00.149Z,8.40
2018-12-30T13:45:48.096Z,7.90
2018-12-30T13:48:28.711Z,10.53
2018-12-30T13:51:02.322Z,8.47
2018-12-30T13:53:50.233Z,7.27
2018-12-30T13:56:46.012Z,7.67
2018-12-30T13:59:25.681Z,8.20
2018-12-30T14:02:02.600Z,9.60
2018-12-30T14:04:45.096Z,9.00
2018-12-30T14:07:38.217Z,8.73
2018-12-30T14:10:27.661Z,8.53
2018-12-30T14:13:08.151Z,9.43
2018-12-30T14:15:51.061Z,7.63
2018-12-30T14:18:36.697Z,8.77
2018-12-30T14:21:17.382Z,9.47
2018-12-30T14:24:06.974Z,9.23
2018-12-30T14:26:45.306Z,9.63
2018-12-30T14:29:34.855Z,10.00
2018-12-30T14:32:13.822Z,9.83
2018-12-30T14:34:46.485Z,8.90
2018-12-30T14:37:20.086Z,9.00
2018-12-30T14:39:59.216Z,8.73
2018-12-30T14:42:33.124Z,9.50
2018-12-30T14:45:18.804Z,8.37
2018-12-30T14:47:51.867Z,8.70
2018-12-30T14:50:23.233Z,7.53
2018-12-30T14:52:54.544Z,6.97
2018-12-30T14:55:25.949Z,6.37
2018-12-30T14:57:57.374Z,7.70
2018-12-30T15:00:28.863Z,7.00
2018-12-30T15:03:00.144Z,7.47
2018-12-30T15:05:31.404Z,6.90
2018-12-30T15:08:03.653Z,5.87
2018-12-30T15:10:35.611Z,6.47
2018-12-30T15:13:06.831Z,6.80
2018-12-30T15:15:39.083Z,7.70
2018-12-30T15:18:11.198Z,6.00
2018-12-30T15:20:43.700Z,7.07
2018-12-30T15:23:15.101Z,6.07
2018-12-30T15:25:46.349Z,6.17
2018-12-30T15:28:17.572Z,6.30
2018-12-30T15:30:48.841Z,6.03
2018-12-30T15:33:20.057Z,6.23
2018-12-30T15:35:51.612Z,7.50
2018-12-30T15:38:22.942Z,6.17
2018-12-30T15:40:54.425Z,5.50
2018-12-30T15:43:25.784Z,6.20
2018-12-30T15:45:57.041Z,6.27
2018-12-30T15:48:28.293Z,8.50
2018-12-30T15:51:00.004Z,7.93
2018-12-30T15:53:31.314Z,11.57
2018-12-30T15:56:02.684Z,8.73
2018-12-30T15:58:34.833Z,7.97
2018-12-30T16:01:06.399Z,8.07
2018-12-30T16:03:37.663Z,7.70
2018-12-30T16:06:08.881Z,9.20
2018-12-30T16:08:40.133Z,8.97
2018-12-30T16:11:11.363Z,9.67
2018-12-30T16:13:45.774Z,9.40
2018-12-30T16:16:17.133Z,8.13
2018-12-30T16:18:48.389Z,6.97
2018-12-30T16:21:19.666Z,6.97
2018-12-30T16:23:50.989Z,7.27
2018-12-30T16:26:22.581Z,6.30
2018-12-30T16:28:53.796Z,7.10
2018-12-30T16:31:28.128Z,8.07
2018-12-30T16:33:58.116Z,6.90
2018-12-30T16:36:29.374Z,6.73
2018-12-30T16:39:01.505Z,6.43
2018-12-30T16:41:34.722Z,6.57
2018-12-30T16:44:06.513Z,8.23
2018-12-30T16:46:37.826Z,8.50
2018-12-30T16:49:09.580Z,8.03
2018-12-30T16:51:41.441Z,7.57
2018-12-30T16:54:12.779Z,6.90
2018-12-30T16:56:44.501Z,7.17
2018-12-30T16:59:16.076Z,8.53
2018-12-30T17:01:47.516Z,8.13
2018-12-30T17:04:19.446Z,7.37
2018-12-30T17:06:50.717Z,8.23
2018-12-30T17:09:23.220Z,9.70
2018-12-30T17:11:54.753Z,9.43
2018-12-30T17:14:27.420Z,7.77
2018-12-30T17:16:59.221Z,7.60
2018-12-30T17:19:31.525Z,10.43
2018-12-30T17:22:05.682Z,14.30
2018-12-30T17:24:37.108Z,8.43
2018-12-30T17:27:09.384Z,13.03
2018-12-30T17:29:40.849Z,13.60
2018-12-30T17:32:12.310Z,8.40
2018-12-30T17:34:44.484Z,10.47
2018-12-30T17:37:15.754Z,7.07
2018-12-30T17:39:48.465Z,6.50
2018-12-30T17:42:19.729Z,6.23
2018-12-30T17:44:52.173Z,8.50
2018-12-30T17:47:24.371Z,10.47
2018-12-30T17:49:56.162Z,12.93
2018-12-30T17:52:29.888Z,11.80
2018-12-30T17:55:01.462Z,15.73
2018-12-30T17:57:32.704Z,12.30
2018-12-30T18:00:04.834Z,7.27
2018-12-30T18:02:37.142Z,7.50
2018-12-30T18:05:09.125Z,8.67
2018-12-30T18:07:40.494Z,8.77
2018-12-30T18:10:11.741Z,7.57
2018-12-30T18:12:43.561Z,12.60
2018-12-30T18:15:15.257Z,8.53
2018-12-30T18:17:46.614Z,7.30
2018-12-30T18:20:18.015Z,8.10
2018-12-30T18:22:49.260Z,6.77
2018-12-30T18:25:20.954Z,7.23
2018-12-30T18:27:52.241Z,7.97
2018-12-30T18:30:24.953Z,6.97
2018-12-30T18:32:56.244Z,8.00
2018-12-30T18:35:27.504Z,8.33
2018-12-30T18:37:58.765Z,9.13
2018-12-30T18:40:30.021Z,9.40
2018-12-30T18:43:01.280Z,10.27
2018-12-30T18:45:32.553Z,11.20
2018-12-30T18:48:03.994Z,11.10
2018-12-30T18:50:35.290Z,11.13
2018-12-30T18:53:06.899Z,10.30
2018-12-30T18:55:38.353Z,10.23
2018-12-30T18:58:09.790Z,8.83
2018-12-30T19:00:42.065Z,9.07
2018-12-30T19:03:13.311Z,10.30
2018-12-30T19:05:44.569Z,9.67
2018-12-30T19:08:15.861Z,8.53
2018-12-30T19:10:47.422Z,7.33
2018-12-30T19:13:18.629Z,7.07
2018-12-30T19:15:49.841Z,6.87
2018-12-30T19:18:21.794Z,7.90
2018-12-30T19:20:52.997Z,9.13
2018-12-30T19:23:24.505Z,9.97
2018-12-30T19:26:00.997Z,7.53
2018-12-30T19:28:28.689Z,8.67
2018-12-30T19:31:00.325Z,9.03
2018-12-30T19:33:31.618Z,7.43
2018-12-30T19:36:03.890Z,11.23
2018-12-30T19:38:35.764Z,10.40
2018-12-30T19:41:07.576Z,10.30
2018-12-30T19:43:38.861Z,10.47
2018-12-30T19:46:10.383Z,11.77
2018-12-30T19:48:43.197Z,10.07
2018-12-30T19:51:16.721Z,11.10
2018-12-30T19:53:49.681Z,10.33
2018-12-30T19:56:21.970Z,10.20
2018-12-30T19:58:53.625Z,9.70
2018-12-30T20:01:25.992Z,9.37
2018-12-30T20:04:03.452Z,11.27
2018-12-30T20:06:34.956Z,10.53
2018-12-30T20:09:09.181Z,9.23
2018-12-30T20:11:40.622Z,10.57
2018-12-30T20:14:12.453Z,11.20
2018-12-30T20:16:45.104Z,10.83
2018-12-30T20:19:17.893Z,10.97
2018-12-30T20:21:51.789Z,9.97
2018-12-30T20:24:23.253Z,10.90
2018-12-30T20:26:54.672Z,12.07
2018-12-30T20:29:26.145Z,13.03
2018-12-30T20:32:02.311Z,13.43
2018-12-30T20:34:35.360Z,13.43
2018-12-30T20:37:08.949Z,12.90
2018-12-30T20:39:41.322Z,13.20
2018-12-30T20:42:13.949Z,11.70
2018-12-30T20:44:46.804Z,11.93
2018-12-30T20:47:18.353Z,11.90
2018-12-30T20:49:50.199Z,13.20
2018-12-30T20:52:22.663Z,12.30
2018-12-30T20:54:54.236Z,14.20
2018-12-30T20:57:26.056Z,13.37
2018-12-30T20:59:57.933Z,15.33
2018-12-30T21:02:30.220Z,17.10
2018-12-30T21:05:03.895Z,13.57
2018-12-30T21:07:35.302Z,14.07
2018-12-30T21:10:07.483Z,13.47
2018-12-30T21:12:39.233Z,13.13
2018-12-30T21:15:10.733Z,12.17
2018-12-30T21:17:42.453Z,12.17
2018-12-30T21:20:14.225Z,12.70
2018-12-30T21:22:48.137Z,11.47
2018-12-30T21:25:19.933Z,11.70
2018-12-30T21:27:51.625Z,11.40
2018-12-30T21:30:23.144Z,11.10
2018-12-30T21:32:54.576Z,11.73
2018-12-30T21:35:25.994Z,12.67
2018-12-30T21:37:57.405Z,11.20
2018-12-30T21:40:30.455Z,13.80
2018-12-30T21:43:02.568Z,12.43
2018-12-30T21:45:34.327Z,14.27
2018-12-30T21:48:05.902Z,12.67
2018-12-30T21:50:37.583Z,13.50
2018-12-30T21:53:09.156Z,13.20
2018-12-30T21:55:41.785Z,13.13
2018-12-30T21:58:13.127Z,13.53
2018-12-30T22:00:44.416Z,13.43
2018-12-30T22:03:17.750Z,15.03
2018-12-30T22:05:49.270Z,12.33
2018-12-30T22:08:21.182Z,13.53
2018-12-30T22:10:53.070Z,13.87
2018-12-30T22:13:24.962Z,14.10
2018-12-30T22:15:56.842Z,14.53
2018-12-30T22:18:28.136Z,13.07
2018-12-30T22:21:00.823Z,12.40
2018-12-30T22:23:32.097Z,15.03
2018-12-30T22:26:03.389Z,14.70
2018-12-30T22:28:36.841Z,14.57
2018-12-30T22:31:08.909Z,12.17
2018-12-30T22:33:41.462Z,13.83
2018-12-30T22:36:13.772Z,14.47
2018-12-30T22:38:45.596Z,16.30
2018-12-30T22:41:17.476Z,16.20
2018-12-30T22:43:49.366Z,16.27
2018-12-30T22:46:20.809Z,16.17
2018-12-30T22:48:53.116Z,15.27
2018-12-30T22:51:24.412Z,13.93
2018-12-30T22:53:55.658Z,15.77
2018-12-30T22:56:26.942Z,15.43
2018-12-30T22:58:58.331Z,17.13
2018-12-30T23:01:34.658Z,16.40
2018-12-30T23:04:06.265Z,14.77
2018-12-30T23:06:37.533Z,16.67
2018-12-30T23:09:08.795Z,15.70
2018-12-30T23:11:40.065Z,16.27
2018-12-30T23:14:11.361Z,16.63
2018-12-30T23:16:42.785Z,17.20
2018-12-30T23:19:14.089Z,16.67
2018-12-30T23:21:45.627Z,18.77
2018-12-30T23:24:16.973Z,18.03
2018-12-30T23:26:48.208Z,17.93
2018-12-30T23:29:19.460Z,17.57
2018-12-30T23:31:50.721Z,18.30
2018-12-30T23:34:23.009Z,19.30
2018-12-30T23:36:54.277Z,17.50
2018-12-30T23:39:25.550Z,18.80
2018-12-30T23:41:56.790Z,17.90
2018-12-30T23:44:28.217Z,19.57
2018-12-30T23:47:00.689Z,19.63
2018-12-30T23:49:31.977Z,20.10
2018-12-30T23:52:04.351Z,21.57
2018-12-30T23:54:35.634Z,18.13
2018-12-30T23:57:07.002Z,20.10
2018-12-30T23:59:38.324Z,20.17
